createdAt,value
2023-01-23T00:01:17.289Z,89.19
2023-01-23T00:04:20.396Z,89.36
2023-01-23T00:07:24.493Z,89.52
2023-01-23T00:10:30.228Z,89.23
2023-01-23T00:13:32.932Z,89.45
2023-01-23T00:16:35.606Z,89.44
2023-01-23T00:19:38.278Z,89.29
2023-01-23T00:22:45.044Z,89.23
2023-01-23T00:25:47.749Z,89.08
2023-01-23T00:28:51.351Z,89.44
2023-01-23T00:31:54.050Z,89.08
2023-01-23T00:35:00.614Z,89.27
2023-01-23T00:38:05.286Z,89.53
2023-01-23T00:41:08.403Z,89.55
2023-01-23T00:44:11.139Z,89.32
2023-01-23T00:47:15.433Z,89.35
2023-01-23T00:50:18.453Z,89.21
2023-01-23T00:53:24.473Z,88.89
2023-01-23T00:56:27.166Z,88.57
2023-01-23T00:59:33.832Z,88.25
2023-01-23T01:02:36.545Z,87.13
2023-01-23T01:05:40.779Z,87.36
2023-01-23T01:08:45.985Z,87.58
2023-01-23T01:11:48.689Z,87.35
2023-01-23T01:14:51.358Z,87.23
2023-01-23T01:17:54.234Z,87.09
2023-01-23T01:20:57.828Z,87.22
2023-01-23T01:24:02.389Z,87.70
2023-01-23T01:27:05.251Z,87.74
2023-01-23T01:30:09.304Z,87.88
2023-01-23T01:33:12.141Z,87.43
2023-01-23T01:36:18.821Z,87.91
2023-01-23T01:39:23.032Z,88.11
2023-01-23T01:42:28.333Z,88.38
2023-01-23T01:46:02.327Z,88.48
2023-01-23T01:49:10.345Z,87.68
2023-01-23T01:52:15.565Z,87.79
2023-01-23T01:55:19.676Z,87.91
2023-01-23T01:58:23.062Z,87.65
2023-01-23T02:01:26.876Z,88.16
2023-01-23T02:04:29.564Z,87.81
2023-01-23T02:07:36.815Z,88.01
2023-01-23T02:10:40.910Z,88.15
2023-01-23T02:13:44.362Z,88.95
2023-01-23T02:16:51.021Z,88.64
2023-01-23T02:20:08.984Z,88.63
2023-01-23T02:23:17.367Z,89.06
2023-01-23T02:26:24.684Z,87.42
2023-01-23T02:29:27.748Z,87.83
2023-01-23T02:32:30.626Z,86.81
2023-01-23T02:35:33.723Z,86.93
2023-01-23T02:38:41.309Z,86.13
2023-01-23T02:41:47.567Z,85.37
2023-01-23T02:44:53.815Z,85.41
2023-01-23T02:47:56.561Z,85.39
2023-01-23T02:50:59.406Z,86.14
2023-01-23T02:54:02.315Z,86.59
2023-01-23T02:57:06.438Z,87.03
2023-01-23T03:00:20.770Z,86.69
2023-01-23T03:03:23.866Z,87.18
2023-01-23T03:06:26.802Z,87.15
2023-01-23T03:09:29.845Z,87.15
2023-01-23T03:12:33.989Z,87.20
2023-01-23T03:15:38.459Z,86.97
2023-01-23T03:18:53.505Z,87.34
2023-01-23T03:21:56.879Z,86.61
2023-01-23T03:24:59.622Z,86.58
2023-01-23T03:28:04.020Z,86.27
2023-01-23T03:31:05.868Z,86.03
2023-01-23T03:34:09.002Z,86.20
2023-01-23T03:37:13.558Z,85.78
2023-01-23T03:40:35.455Z,86.10
2023-01-23T03:43:39.532Z,86.94
2023-01-23T03:46:42.288Z,85.89
2023-01-23T03:49:45.147Z,86.43
2023-01-23T03:52:47.956Z,86.72
2023-01-23T03:55:50.796Z,86.81
2023-01-23T03:58:55.170Z,85.77
2023-01-23T04:01:58.486Z,85.64
2023-01-23T04:05:01.199Z,86.20
2023-01-23T04:08:04.422Z,86.26
2023-01-23T04:11:09.071Z,86.37
2023-01-23T04:14:13.411Z,86.46
2023-01-23T04:17:16.219Z,87.57
2023-01-23T04:20:19.459Z,87.20
2023-01-23T04:23:23.151Z,86.88
2023-01-23T04:26:26.013Z,87.22
2023-01-23T04:29:30.452Z,85.98
2023-01-23T04:32:33.505Z,86.45
2023-01-23T04:35:36.670Z,85.96
2023-01-23T04:38:39.448Z,85.78
2023-01-23T04:41:42.337Z,86.18
2023-01-23T04:44:46.550Z,86.88
2023-01-23T04:47:49.363Z,87.02
2023-01-23T04:50:52.553Z,87.54
2023-01-23T04:53:55.331Z,87.51
2023-01-23T04:56:58.104Z,88.17
2023-01-23T05:00:02.212Z,87.67
2023-01-23T05:03:05.105Z,87.43
2023-01-23T05:06:08.307Z,86.64
2023-01-23T05:09:11.446Z,87.25
2023-01-23T05:12:14.320Z,87.19
2023-01-23T05:15:18.773Z,87.32
2023-01-23T05:18:21.546Z,87.64
2023-01-23T05:21:24.449Z,86.98
2023-01-23T05:24:27.236Z,86.89
2023-01-23T05:27:29.959Z,86.17
2023-01-23T05:30:34.197Z,86.21
2023-01-23T05:33:36.973Z,86.54
2023-01-23T05:36:40.495Z,87.40
2023-01-23T05:39:43.248Z,87.20
2023-01-23T05:42:45.979Z,86.27
2023-01-23T05:45:50.097Z,86.10
2023-01-23T05:48:53.253Z,85.79
2023-01-23T05:51:56.052Z,86.01
2023-01-23T05:54:58.828Z,86.11
2023-01-23T05:58:02.055Z,85.97
2023-01-23T06:01:06.877Z,86.43
2023-01-23T06:04:09.610Z,86.28
2023-01-23T06:07:17.656Z,86.21
2023-01-23T06:10:20.847Z,86.63
2023-01-23T06:13:23.867Z,86.72
2023-01-23T06:16:28.166Z,85.99
2023-01-23T06:19:30.979Z,85.64
2023-01-23T06:22:33.741Z,86.36
2023-01-23T06:25:37.503Z,86.59
2023-01-23T06:28:40.671Z,86.17
2023-01-23T06:31:46.259Z,85.86
2023-01-23T06:34:49.152Z,86.15
2023-01-23T06:37:51.865Z,86.58
2023-01-23T06:40:54.862Z,86.99
2023-01-23T06:43:57.661Z,87.37
2023-01-23T06:47:01.747Z,86.75
2023-01-23T06:50:06.138Z,86.37
2023-01-23T06:53:09.391Z,87.08
2023-01-23T06:56:13.346Z,86.08
2023-01-23T06:59:16.715Z,86.32
2023-01-23T07:02:20.833Z,86.42
2023-01-23T07:05:23.531Z,86.39
2023-01-23T07:08:26.355Z,86.55
2023-01-23T07:11:29.110Z,86.20
2023-01-23T07:14:32.167Z,86.22
2023-01-23T07:17:36.367Z,86.27
2023-01-23T07:20:39.118Z,86.26
2023-01-23T07:23:42.265Z,86.48
2023-01-23T07:26:45.101Z,86.46
2023-01-23T07:29:47.906Z,87.16
2023-01-23T07:32:52.304Z,86.69
2023-01-23T07:35:55.319Z,85.91
2023-01-23T07:38:59.076Z,85.75
2023-01-23T07:42:01.974Z,86.51
2023-01-23T07:45:05.126Z,86.81
2023-01-23T07:48:09.198Z,86.74
2023-01-23T07:51:12.054Z,86.18
2023-01-23T07:54:14.964Z,85.88
2023-01-23T07:57:17.785Z,84.38
2023-01-23T08:00:24.277Z,84.78
2023-01-23T08:03:28.947Z,85.18
2023-01-23T08:06:31.864Z,85.11
2023-01-23T08:09:34.827Z,83.69
2023-01-23T08:12:37.563Z,84.79
2023-01-23T08:15:40.475Z,83.37
2023-01-23T08:18:44.965Z,82.70
2023-01-23T08:21:47.994Z,81.75
2023-01-23T08:24:50.736Z,83.64
2023-01-23T08:27:53.452Z,84.14
2023-01-23T08:30:56.744Z,83.37
2023-01-23T08:34:00.865Z,83.03
2023-01-23T08:37:03.806Z,82.27
2023-01-23T08:40:07.933Z,80.67
2023-01-23T08:43:12.138Z,80.77
2023-01-23T08:46:14.940Z,80.38
2023-01-23T08:49:20.472Z,80.76
2023-01-23T08:52:23.708Z,81.03
2023-01-23T08:55:28.412Z,79.25
2023-01-23T08:58:31.609Z,79.18
2023-01-23T09:01:34.365Z,79.06
2023-01-23T09:04:38.562Z,79.48
2023-01-23T09:07:41.305Z,79.71
2023-01-23T09:10:44.557Z,78.68
2023-01-23T09:13:48.035Z,78.08
2023-01-23T09:16:51.118Z,78.34
2023-01-23T09:19:55.208Z,78.14
2023-01-23T09:22:57.981Z,78.60
2023-01-23T09:26:04.061Z,77.20
2023-01-23T09:29:06.995Z,78.85
2023-01-23T09:32:10.285Z,80.13
2023-01-23T09:35:14.593Z,80.29
2023-01-23T09:38:17.406Z,80.67
2023-01-23T09:41:22.309Z,79.60
2023-01-23T09:44:36.929Z,76.78
2023-01-23T09:47:48.185Z,78.37
2023-01-23T09:51:02.096Z,78.87
2023-01-23T09:54:21.963Z,79.16
2023-01-23T09:57:27.213Z,77.78
2023-01-23T10:00:32.322Z,78.59
2023-01-23T10:03:35.588Z,76.77
2023-01-23T10:06:59.421Z,77.66
2023-01-23T10:10:25.056Z,78.33
2023-01-23T10:13:45.838Z,77.42
2023-01-23T10:17:03.310Z,77.36
2023-01-23T10:20:36.979Z,77.45
2023-01-23T10:23:54.274Z,77.90
2023-01-23T10:27:04.712Z,78.46
2023-01-23T10:30:20.765Z,78.54
2023-01-23T10:33:35.333Z,77.40
2023-01-23T10:36:54.030Z,77.21
2023-01-23T10:40:04.175Z,77.15
2023-01-23T10:43:13.591Z,76.89
2023-01-23T10:46:18.072Z,75.36
2023-01-23T10:49:44.300Z,75.23
2023-01-23T10:52:47.933Z,75.03
2023-01-23T10:55:53.659Z,76.50
2023-01-23T10:58:57.070Z,76.57
2023-01-23T11:02:03.406Z,73.63
2023-01-23T11:05:51.110Z,75.07
2023-01-23T11:08:58.674Z,75.95
2023-01-23T11:12:03.539Z,76.13
2023-01-23T11:15:15.250Z,76.42
2023-01-23T11:18:32.434Z,76.37
2023-01-23T11:21:38.164Z,76.21
2023-01-23T11:24:41.792Z,76.32
2023-01-23T11:27:57.876Z,76.95
2023-01-23T11:31:13.660Z,75.47
2023-01-23T11:34:22.737Z,76.57
2023-01-23T11:37:32.491Z,77.89
2023-01-23T11:40:36.128Z,77.13
2023-01-23T11:43:39.282Z,76.93
2023-01-23T11:46:57.861Z,77.86
2023-01-23T11:50:18.984Z,76.47
2023-01-23T11:53:41.119Z,76.94
2023-01-23T11:56:57.328Z,75.65
2023-01-23T12:00:18.670Z,77.05
2023-01-23T12:03:45.765Z,77.52
2023-01-23T12:07:01.080Z,75.98
2023-01-23T12:10:19.910Z,76.28
2023-01-23T12:13:39.003Z,76.86
2023-01-23T12:16:58.198Z,77.17
2023-01-23T12:20:21.342Z,76.77
2023-01-23T12:23:37.811Z,75.11
2023-01-23T12:26:58.635Z,75.74
2023-01-23T12:30:20.196Z,75.31
2023-01-23T12:33:51.584Z,74.80
2023-01-23T12:37:12.327Z,75.42
2023-01-23T12:40:28.160Z,76.93
2023-01-23T12:43:39.231Z,75.88
2023-01-23T12:46:50.380Z,74.27
2023-01-23T12:49:57.310Z,76.18
2023-01-23T12:53:05.441Z,75.96
2023-01-23T12:56:15.734Z,76.59
2023-01-23T12:59:26.615Z,76.98
2023-01-23T13:02:41.629Z,74.38
2023-01-23T13:05:54.906Z,74.59
2023-01-23T13:09:16.735Z,74.41
2023-01-23T13:12:23.463Z,75.72
2023-01-23T13:15:40.113Z,75.94
2023-01-23T13:19:11.799Z,76.69
2023-01-23T13:22:28.656Z,75.21
2023-01-23T13:25:33.681Z,76.13
2023-01-23T13:28:46.420Z,74.52
2023-01-23T13:31:52.691Z,76.04
2023-01-23T13:34:55.628Z,75.62
2023-01-23T13:38:00.144Z,75.02
2023-01-23T13:41:31.493Z,75.52
2023-01-23T13:44:42.144Z,75.70
2023-01-23T14:27:52.795Z,79.03
2023-01-23T14:30:58.519Z,77.27
2023-01-23T14:34:09.780Z,77.88
2023-01-23T14:37:13.696Z,78.00
2023-01-23T14:40:27.193Z,78.07
2023-01-23T14:43:33.034Z,77.59
2023-01-23T14:46:40.138Z,78.11
2023-01-23T14:49:43.692Z,77.96
2023-01-23T14:52:46.856Z,78.44
2023-01-23T14:55:52.693Z,78.96
2023-01-23T14:58:58.798Z,78.86
2023-01-23T15:02:13.215Z,79.37
2023-01-23T15:05:26.965Z,78.40
2023-01-23T15:08:33.227Z,79.31
2023-01-23T15:11:37.384Z,79.51
2023-01-23T15:14:41.289Z,79.80
2023-01-23T15:17:45.124Z,80.19
2023-01-23T15:20:54.788Z,80.30
2023-01-23T15:24:06.684Z,80.43
2023-01-23T15:27:26.478Z,80.41
2023-01-23T15:30:31.774Z,80.66
2023-01-23T15:33:40.013Z,80.30
2023-01-23T15:36:48.156Z,80.05
2023-01-23T15:39:52.720Z,80.49
2023-01-23T15:43:05.657Z,80.98
2023-01-23T15:46:11.082Z,81.54
2023-01-23T15:49:24.906Z,81.81
2023-01-23T15:52:30.611Z,82.37
2023-01-23T15:55:33.376Z,82.61
2023-01-23T15:58:45.846Z,82.65
2023-01-23T16:01:48.847Z,83.02
2023-01-23T16:04:52.062Z,82.87
2023-01-23T16:07:56.094Z,83.10
2023-01-23T16:10:59.087Z,83.26
2023-01-23T16:17:54.539Z,83.59
2023-01-23T16:20:57.437Z,83.77
2023-01-23T16:24:00.593Z,83.81
2023-01-23T16:27:04.465Z,83.91
2023-01-23T16:30:11.885Z,83.89
2023-01-23T16:33:16.240Z,84.16
2023-01-23T16:36:20.406Z,84.16
2023-01-23T16:39:25.769Z,83.98
2023-01-23T16:42:29.605Z,83.98
2023-01-23T16:45:33.424Z,84.03
2023-01-23T16:48:37.783Z,83.44
2023-01-23T16:51:41.895Z,82.93
2023-01-23T16:54:45.129Z,83.08
2023-01-23T16:57:49.091Z,83.43
2023-01-23T17:00:53.053Z,83.44
2023-01-23T17:04:00.576Z,83.37
2023-01-23T17:07:03.918Z,83.37
2023-01-23T17:10:07.767Z,82.90
2023-01-23T17:13:12.171Z,82.62
2023-01-23T17:16:26.507Z,82.58
2023-01-23T17:19:33.653Z,82.55
2023-01-23T17:22:41.287Z,82.77
2023-01-23T17:25:59.816Z,82.84
2023-01-23T17:29:04.333Z,82.75
2023-01-23T17:32:07.324Z,82.80
2023-01-23T17:35:21.446Z,82.36
2023-01-23T17:38:26.804Z,82.77
2023-01-23T17:41:31.606Z,82.84
2023-01-23T17:44:35.046Z,82.62
2023-01-23T17:47:37.977Z,82.45
2023-01-23T17:50:44.335Z,82.15
2023-01-23T17:53:48.074Z,82.63
2023-01-23T17:56:51.132Z,82.70
2023-01-23T17:59:56.312Z,82.68
2023-01-23T18:03:02.158Z,81.14
2023-01-23T18:06:06.763Z,80.97
2023-01-23T18:09:09.980Z,81.47
2023-01-23T18:12:19.764Z,80.85
2023-01-23T18:15:31.464Z,81.53
2023-01-23T18:18:36.262Z,81.99
2023-01-23T18:21:41.224Z,81.69
2023-01-23T18:24:44.673Z,82.03
2023-01-23T18:27:50.263Z,81.86
2023-01-23T18:31:00.974Z,81.89
2023-01-23T18:34:14.414Z,81.91
2023-01-23T18:37:28.787Z,81.96
2023-01-23T18:40:37.245Z,82.07
2023-01-23T18:43:43.696Z,82.18
2023-01-23T18:46:47.014Z,82.19
2023-01-23T18:49:50.212Z,82.39
2023-01-23T18:53:08.747Z,82.09
2023-01-23T18:56:22.577Z,82.35
2023-01-23T18:59:32.403Z,82.18
2023-01-23T19:02:43.383Z,82.45
2023-01-23T19:05:47.297Z,82.49
2023-01-23T19:08:53.596Z,82.31
2023-01-23T19:12:02.923Z,82.38
2023-01-23T19:15:22.894Z,82.33
2023-01-23T19:18:47.234Z,82.42
2023-01-23T19:21:50.747Z,82.36
2023-01-23T19:24:55.655Z,82.19
2023-01-23T19:28:01.005Z,81.99
2023-01-23T19:31:04.389Z,81.33
2023-01-23T19:34:08.014Z,81.59
2023-01-23T19:37:10.717Z,81.21
2023-01-23T19:40:17.009Z,81.60
2023-01-23T19:43:20.077Z,81.09
2023-01-23T19:46:26.325Z,80.91
2023-01-23T19:49:29.209Z,80.21
2023-01-23T19:52:32.040Z,78.38
2023-01-23T19:55:38.347Z,79.62
2023-01-23T19:58:42.404Z,79.69
2023-01-23T20:01:48.725Z,80.53
2023-01-23T20:04:51.932Z,80.67
2023-01-23T20:07:55.265Z,80.90
2023-01-23T20:10:59.767Z,81.02
2023-01-23T20:14:02.548Z,81.34
2023-01-23T20:17:05.373Z,81.34
2023-01-23T20:20:12.033Z,81.22
2023-01-23T20:23:14.898Z,81.06
2023-01-23T20:26:38.169Z,80.63
2023-01-23T20:29:41.012Z,80.51
2023-01-23T20:32:43.942Z,80.64
2023-01-23T20:35:46.782Z,79.04
2023-01-23T20:38:49.623Z,79.71
2023-01-23T20:41:53.893Z,80.50
2023-01-23T20:44:56.680Z,80.78
2023-01-23T20:47:59.701Z,80.59
2023-01-23T20:51:02.476Z,81.03
2023-01-23T20:54:05.602Z,81.39
2023-01-23T20:57:09.686Z,80.16
2023-01-23T21:00:12.777Z,80.55
2023-01-23T21:03:15.612Z,80.17
2023-01-23T21:06:18.994Z,80.47
2023-01-23T21:09:21.792Z,80.08
2023-01-23T21:12:26.083Z,80.06
2023-01-23T21:15:29.537Z,80.66
2023-01-23T21:18:37.424Z,80.14
2023-01-23T21:21:40.586Z,80.05
2023-01-23T21:24:43.588Z,79.84
2023-01-23T21:27:47.623Z,79.96
2023-01-23T21:30:50.702Z,80.09
2023-01-23T21:33:53.807Z,79.34
2023-01-23T21:36:56.583Z,79.87
2023-01-23T21:39:59.309Z,78.23
2023-01-23T21:43:03.348Z,79.50
2023-01-23T21:46:07.341Z,80.27
2023-01-23T21:49:10.366Z,80.50
2023-01-23T21:52:13.077Z,80.48
2023-01-23T21:55:15.834Z,80.44
2023-01-23T21:58:19.972Z,80.36
2023-01-23T22:01:33.754Z,80.45
2023-01-23T22:04:37.186Z,80.46
2023-01-23T22:07:39.931Z,80.35
2023-01-23T22:10:42.801Z,80.70
2023-01-23T22:13:47.082Z,79.92
2023-01-23T22:16:50.920Z,79.59
2023-01-23T22:19:54.228Z,80.08
2023-01-23T22:22:56.955Z,80.15
2023-01-23T22:26:02.527Z,80.32
2023-01-23T22:29:06.936Z,78.83
2023-01-23T22:32:09.944Z,78.55
2023-01-23T22:35:12.954Z,78.77
2023-01-23T22:38:17.314Z,79.73
2023-01-23T22:41:20.904Z,79.76
2023-01-23T22:44:25.405Z,80.21
2023-01-23T22:47:28.205Z,80.02
2023-01-23T22:50:31.130Z,79.74
2023-01-23T22:53:34.229Z,77.96
2023-01-23T22:56:37.162Z,79.01
2023-01-23T22:59:41.375Z,79.40
2023-01-23T23:02:44.084Z,79.46
2023-01-23T23:05:47.038Z,79.36
2023-01-23T23:08:50.204Z,78.83
2023-01-23T23:11:53.069Z,79.44
2023-01-23T23:14:57.138Z,77.46
2023-01-23T23:17:59.891Z,77.52
2023-01-23T23:21:03.283Z,78.42
2023-01-23T23:24:09.521Z,77.64
2023-01-23T23:27:12.534Z,78.74
2023-01-23T23:30:17.317Z,77.78
2023-01-23T23:33:21.070Z,78.80
2023-01-23T23:36:24.367Z,79.04
2023-01-23T23:39:27.189Z,79.83
2023-01-23T23:42:29.917Z,78.99
2023-01-23T23:45:34.413Z,78.17
2023-01-23T23:48:38.235Z,78.54
2023-01-23T23:51:40.959Z,79.34
2023-01-23T23:54:43.714Z,79.01
2023-01-23T23:57:46.596Z,78.87
